createdAt,value
2019-05-12T05:11:35.425Z,3.89
2019-05-12T05:21:34.564Z,4.36
2019-05-12T05:31:33.847Z,4.72
2019-05-12T05:41:34.554Z,4.99
2019-05-12T05:51:33.639Z,5.40
2019-05-12T06:01:34.747Z,5.79
2019-05-12T06:11:34.530Z,5.96
2019-05-12T06:21:36.405Z,6.08
2019-05-12T06:31:33.563Z,6.54
2019-05-12T06:41:33.635Z,6.87
2019-05-12T06:51:33.966Z,7.52
2019-05-12T07:01:33.536Z,8.46
2019-05-12T07:11:42.423Z,8.53
2019-05-12T07:21:33.618Z,9.46
2019-05-12T07:31:33.728Z,8.81
2019-05-12T07:41:34.219Z,8.87
2019-05-12T07:51:38.276Z,9.55
2019-05-12T08:01:44.741Z,9.69
2019-05-12T08:11:36.755Z,9.29
2019-05-12T08:21:34.868Z,10.25
2019-05-12T08:31:40.194Z,9.78
2019-05-12T08:41:34.170Z,10.46
2019-05-12T08:51:33.931Z,11.26
2019-05-12T09:01:34.399Z,10.62
2019-05-12T09:11:33.579Z,10.93
2019-05-12T09:21:36.577Z,10.85
2019-05-12T09:31:33.805Z,11.34
2019-05-12T09:41:41.727Z,11.59
2019-05-12T09:51:41.330Z,12.29
2019-05-12T10:01:37.986Z,12.35
2019-05-12T10:11:32.903Z,12.06
2019-05-12T10:21:35.652Z,11.79
2019-05-12T10:31:35.786Z,12.39
2019-05-12T10:41:34.223Z,13.13
2019-05-12T10:51:34.380Z,11.93
2019-05-12T11:01:32.969Z,12.81
2019-05-12T11:11:41.709Z,12.30
2019-05-12T11:21:33.672Z,12.46
2019-05-12T11:31:33.439Z,12.58
2019-05-12T11:41:33.324Z,13.02
2019-05-12T11:51:34.036Z,13.07
2019-05-12T12:01:34.449Z,14.20
2019-05-12T12:11:34.252Z,13.38
2019-05-12T12:21:35.009Z,13.59
2019-05-12T12:31:37.322Z,12.85
2019-05-12T12:41:34.128Z,12.79
2019-05-12T12:51:34.138Z,13.28
2019-05-12T13:01:35.680Z,12.56
2019-05-12T13:11:34.864Z,12.67
2019-05-12T13:21:33.577Z,13.93
2019-05-12T13:31:33.337Z,14.79
2019-05-12T13:41:32.624Z,14.13
2019-05-12T13:51:35.193Z,13.31
2019-05-12T14:01:40.240Z,14.65
2019-05-12T14:11:35.088Z,12.95
2019-05-12T14:21:40.888Z,12.62
2019-05-12T14:31:36.356Z,12.91
2019-05-12T14:41:34.201Z,14.66
2019-05-12T14:51:33.454Z,14.25
2019-05-12T15:01:51.837Z,13.64
2019-05-12T15:11:34.120Z,12.99
2019-05-12T15:21:33.975Z,13.71
2019-05-12T15:31:33.693Z,13.96
2019-05-12T15:41:33.388Z,14.08
2019-05-12T15:51:37.166Z,13.18
2019-05-12T16:01:33.588Z,13.57
2019-05-12T16:11:34.126Z,13.42
2019-05-12T16:21:33.352Z,12.30
2019-05-12T16:31:33.944Z,13.10
2019-05-12T16:41:34.455Z,12.99
2019-05-12T16:51:33.462Z,13.03
2019-05-12T17:01:33.595Z,12.16
2019-05-12T17:11:37.448Z,12.53
2019-05-12T17:21:33.601Z,12.28
2019-05-12T17:31:33.926Z,12.03
2019-05-12T17:41:40.223Z,11.87
2019-05-12T17:51:33.148Z,11.74
2019-05-12T18:01:35.483Z,11.57
2019-05-12T18:11:35.494Z,11.37
2019-05-12T18:21:34.043Z,11.09
2019-05-12T18:31:33.479Z,10.81
2019-05-12T18:41:33.683Z,10.55
2019-05-12T18:51:34.286Z,9.95
2019-05-12T19:01:33.523Z,9.85
